sensor_id;sensor_type;location;lat;lon;timestamp;temperature;humidity
22950;DHT22;11641;51.018;4.474;2022-12-16T00:03:35;-1.10;99.90
22950;DHT22;11641;51.018;4.474;2022-12-16T00:06:04;-1.00;99.90
22950;DHT22;11641;51.018;4.474;2022-12-16T00:08:35;-0.80;99.90
22950;DHT22;11641;51.018;4.474;2022-12-16T00:11:02;-0.60;99.90
22950;DHT22;11641;51.018;4.474;2022-12-16T00:13:30;-0.50;99.90
22950;DHT22;11641;51.018;4.474;2022-12-16T00:15:58;-0.40;99.90
22950;DHT22;11641;51.018;4.474;2022-12-16T00:18:24;-0.40;99.90
22950;DHT22;11641;51.018;4.474;2022-12-16T00:20:53;-0.40;99.90
22950;DHT22;11641;51.018;4.474;2022-12-16T00:23:19;-0.60;99.90
22950;DHT22;11641;51.018;4.474;2022-12-16T00:25:47;-0.60;99.90
22950;DHT22;11641;51.018;4.474;2022-12-16T00:28:14;-0.80;99.90
22950;DHT22;11641;51.018;4.474;2022-12-16T00:30:41;-0.90;99.90
22950;DHT22;11641;51.018;4.474;2022-12-16T00:33:07;-1.00;99.90
22950;DHT22;11641;51.018;4.474;2022-12-16T00:35:32;-1.00;99.90
22950;DHT22;11641;51.018;4.474;2022-12-16T00:37:58;-1.00;99.90
22950;DHT22;11641;51.018;4.474;2022-12-16T00:40:24;-0.90;99.90
22950;DHT22;11641;51.018;4.474;2022-12-16T00:42:50;-0.80;99.90
22950;DHT22;11641;51.018;4.474;2022-12-16T00:45:16;-0.80;99.90
22950;DHT22;11641;51.018;4.474;2022-12-16T00:47:44;-0.90;99.90
22950;DHT22;11641;51.018;4.474;2022-12-16T00:50:10;-0.90;99.90
22950;DHT22;11641;51.018;4.474;2022-12-16T00:52:38;-1.00;99.90
22950;DHT22;11641;51.018;4.474;2022-12-16T00:55:04;-1.20;99.90
22950;DHT22;11641;51.018;4.474;2022-12-16T00:57:30;-1.30;99.90
22950;DHT22;11641;51.018;4.474;2022-12-16T00:59:56;-1.40;99.90
22950;DHT22;11641;51.018;4.474;2022-12-16T01:02:21;-1.50;99.90
22950;DHT22;11641;51.018;4.474;2022-12-16T01:04:47;-1.50;99.90
22950;DHT22;11641;51.018;4.474;2022-12-16T01:07:12;-1.40;99.90
22950;DHT22;11641;51.018;4.474;2022-12-16T01:09:38;-1.30;99.90
22950;DHT22;11641;51.018;4.474;2022-12-16T01:12:06;-1.10;99.90
22950;DHT22;11641;51.018;4.474;2022-12-16T01:14:34;-1.00;99.90
22950;DHT22;11641;51.018;4.474;2022-12-16T01:16:59;-0.80;99.90
22950;DHT22;11641;51.018;4.474;2022-12-16T01:19:25;-0.60;99.90
22950;DHT22;11641;51.018;4.474;2022-12-16T01:21:51;-0.50;99.90
22950;DHT22;11641;51.018;4.474;2022-12-16T01:24:17;-0.40;99.90
22950;DHT22;11641;51.018;4.474;2022-12-16T01:26:42;-0.40;99.90
22950;DHT22;11641;51.018;4.474;2022-12-16T01:29:08;-0.40;99.90
22950;DHT22;11641;51.018;4.474;2022-12-16T01:31:33;-0.40;99.90
22950;DHT22;11641;51.018;4.474;2022-12-16T01:33:59;-0.50;99.90
22950;DHT22;11641;51.018;4.474;2022-12-16T01:36:27;-0.70;99.90
22950;DHT22;11641;51.018;4.474;2022-12-16T01:38:53;-0.80;99.90
22950;DHT22;11641;51.018;4.474;2022-12-16T01:41:19;-1.00;99.90
22950;DHT22;11641;51.018;4.474;2022-12-16T01:43:45;-1.10;99.90
22950;DHT22;11641;51.018;4.474;2022-12-16T01:54:01;-1.00;99.90
22950;DHT22;11641;51.018;4.474;2022-12-16T01:56:28;-0.90;99.90
22950;DHT22;11641;51.018;4.474;2022-12-16T01:58:57;-0.70;99.90
22950;DHT22;11641;51.018;4.474;2022-12-16T02:01:24;-0.60;99.90
22950;DHT22;11641;51.018;4.474;2022-12-16T02:03:51;-0.60;99.90
22950;DHT22;11641;51.018;4.474;2022-12-16T02:06:17;-0.50;99.90
22950;DHT22;11641;51.018;4.474;2022-12-16T02:08:42;-0.40;99.90
22950;DHT22;11641;51.018;4.474;2022-12-16T02:28:19;0.20;99.90
22950;DHT22;11641;51.018;4.474;2022-12-16T02:30:55;0.30;99.90
22950;DHT22;11641;51.018;4.474;2022-12-16T02:33:39;0.30;99.90
22950;DHT22;11641;51.018;4.474;2022-12-16T02:38:58;0.50;99.90
22950;DHT22;11641;51.018;4.474;2022-12-16T02:41:46;0.60;99.90
22950;DHT22;11641;51.018;4.474;2022-12-16T02:44:15;0.70;99.90
22950;DHT22;11641;51.018;4.474;2022-12-16T02:46:50;0.70;99.90
22950;DHT22;11641;51.018;4.474;2022-12-16T02:51:43;0.60;99.90
22950;DHT22;11641;51.018;4.474;2022-12-16T02:54:10;0.70;99.90
22950;DHT22;11641;51.018;4.474;2022-12-16T03:04:49;0.50;99.90
22950;DHT22;11641;51.018;4.474;2022-12-16T03:07:18;0.60;99.90
22950;DHT22;11641;51.018;4.474;2022-12-16T03:09:47;0.60;99.90
22950;DHT22;11641;51.018;4.474;2022-12-16T03:12:16;0.70;99.90
22950;DHT22;11641;51.018;4.474;2022-12-16T03:14:46;0.80;99.90
22950;DHT22;11641;51.018;4.474;2022-12-16T03:17:14;0.90;99.90
22950;DHT22;11641;51.018;4.474;2022-12-16T03:19:48;0.90;99.90
22950;DHT22;11641;51.018;4.474;2022-12-16T03:22:20;1.00;99.90
22950;DHT22;11641;51.018;4.474;2022-12-16T03:24:47;1.00;99.90
22950;DHT22;11641;51.018;4.474;2022-12-16T03:27:25;0.90;99.90
22950;DHT22;11641;51.018;4.474;2022-12-16T03:32:35;0.90;99.90
22950;DHT22;11641;51.018;4.474;2022-12-16T03:37:39;1.10;99.90
22950;DHT22;11641;51.018;4.474;2022-12-16T03:40:07;1.10;99.90
22950;DHT22;11641;51.018;4.474;2022-12-16T03:42:35;1.20;99.90
22950;DHT22;11641;51.018;4.474;2022-12-16T03:45:04;1.20;99.90
22950;DHT22;11641;51.018;4.474;2022-12-16T03:47:30;1.30;99.90
22950;DHT22;11641;51.018;4.474;2022-12-16T03:49:56;1.20;99.90
22950;DHT22;11641;51.018;4.474;2022-12-16T03:52:24;1.30;99.90
22950;DHT22;11641;51.018;4.474;2022-12-16T03:54:50;1.40;99.90
22950;DHT22;11641;51.018;4.474;2022-12-16T03:57:18;1.50;99.90
22950;DHT22;11641;51.018;4.474;2022-12-16T03:59:43;1.50;99.90
22950;DHT22;11641;51.018;4.474;2022-12-16T04:02:09;1.70;99.90
22950;DHT22;11641;51.018;4.474;2022-12-16T04:04:35;1.70;99.90
22950;DHT22;11641;51.018;4.474;2022-12-16T04:07:00;1.80;99.90
22950;DHT22;11641;51.018;4.474;2022-12-16T04:09:45;1.80;99.90
22950;DHT22;11641;51.018;4.474;2022-12-16T04:12:10;2.00;99.90
22950;DHT22;11641;51.018;4.474;2022-12-16T04:14:54;2.00;99.90
22950;DHT22;11641;51.018;4.474;2022-12-16T04:17:41;2.10;99.90
22950;DHT22;11641;51.018;4.474;2022-12-16T04:20:30;2.00;99.90
22950;DHT22;11641;51.018;4.474;2022-12-16T04:23:16;2.10;99.90
22950;DHT22;11641;51.018;4.474;2022-12-16T04:26:00;2.20;99.90
22950;DHT22;11641;51.018;4.474;2022-12-16T04:28:26;2.30;99.90
22950;DHT22;11641;51.018;4.474;2022-12-16T04:30:54;2.40;99.90
22950;DHT22;11641;51.018;4.474;2022-12-16T04:33:20;2.40;99.90
22950;DHT22;11641;51.018;4.474;2022-12-16T04:36:06;2.50;99.90
22950;DHT22;11641;51.018;4.474;2022-12-16T04:38:50;2.50;99.90
22950;DHT22;11641;51.018;4.474;2022-12-16T04:41:34;2.50;99.90
22950;DHT22;11641;51.018;4.474;2022-12-16T04:44:18;2.50;99.90
22950;DHT22;11641;51.018;4.474;2022-12-16T04:47:02;2.50;99.90
22950;DHT22;11641;51.018;4.474;2022-12-16T04:49:46;2.50;99.90
22950;DHT22;11641;51.018;4.474;2022-12-16T04:52:33;2.70;99.90
22950;DHT22;11641;51.018;4.474;2022-12-16T04:55:17;2.60;99.90
22950;DHT22;11641;51.018;4.474;2022-12-16T04:58:02;2.60;99.90
22950;DHT22;11641;51.018;4.474;2022-12-16T05:00:48;2.70;99.90
22950;DHT22;11641;51.018;4.474;2022-12-16T05:03:32;2.70;99.90
22950;DHT22;11641;51.018;4.474;2022-12-16T05:06:17;2.70;99.90
22950;DHT22;11641;51.018;4.474;2022-12-16T05:09:02;2.70;99.90
22950;DHT22;11641;51.018;4.474;2022-12-16T05:11:47;2.70;99.90
22950;DHT22;11641;51.018;4.474;2022-12-16T05:14:31;2.70;99.90
22950;DHT22;11641;51.018;4.474;2022-12-16T05:17:16;2.70;99.90
22950;DHT22;11641;51.018;4.474;2022-12-16T05:20:00;2.50;99.90
22950;DHT22;11641;51.018;4.474;2022-12-16T05:22:44;2.40;99.90
22950;DHT22;11641;51.018;4.474;2022-12-16T05:25:28;2.30;99.90
22950;DHT22;11641;51.018;4.474;2022-12-16T05:28:12;2.00;99.90
22950;DHT22;11641;51.018;4.474;2022-12-16T05:30:57;2.00;99.90
22950;DHT22;11641;51.018;4.474;2022-12-16T05:33:41;1.80;99.90
22950;DHT22;11641;51.018;4.474;2022-12-16T05:36:25;1.60;99.90
22950;DHT22;11641;51.018;4.474;2022-12-16T05:39:09;1.50;99.90
22950;DHT22;11641;51.018;4.474;2022-12-16T05:41:54;1.30;99.90
22950;DHT22;11641;51.018;4.474;2022-12-16T05:44:39;1.10;99.90
22950;DHT22;11641;51.018;4.474;2022-12-16T05:47:24;1.00;99.90
22950;DHT22;11641;51.018;4.474;2022-12-16T05:50:08;0.90;99.90
22950;DHT22;11641;51.018;4.474;2022-12-16T05:52:54;0.80;99.90
22950;DHT22;11641;51.018;4.474;2022-12-16T05:55:39;0.80;99.90
22950;DHT22;11641;51.018;4.474;2022-12-16T05:58:23;0.80;99.90
22950;DHT22;11641;51.018;4.474;2022-12-16T06:01:07;0.80;99.90
22950;DHT22;11641;51.018;4.474;2022-12-16T06:03:51;0.70;99.90
22950;DHT22;11641;51.018;4.474;2022-12-16T06:06:36;0.70;99.90
22950;DHT22;11641;51.018;4.474;2022-12-16T06:09:20;0.60;99.90
22950;DHT22;11641;51.018;4.474;2022-12-16T06:12:04;0.50;99.90
22950;DHT22;11641;51.018;4.474;2022-12-16T06:14:48;0.50;99.90
22950;DHT22;11641;51.018;4.474;2022-12-16T06:17:32;0.40;99.90
22950;DHT22;11641;51.018;4.474;2022-12-16T06:20:17;0.40;99.90
22950;DHT22;11641;51.018;4.474;2022-12-16T06:23:01;0.40;99.90
22950;DHT22;11641;51.018;4.474;2022-12-16T06:25:45;0.30;99.90
22950;DHT22;11641;51.018;4.474;2022-12-16T06:28:29;0.30;99.90
22950;DHT22;11641;51.018;4.474;2022-12-16T06:31:14;0.20;99.90
22950;DHT22;11641;51.018;4.474;2022-12-16T06:33:58;0.10;99.90
22950;DHT22;11641;51.018;4.474;2022-12-16T06:36:42;0.00;99.90
22950;DHT22;11641;51.018;4.474;2022-12-16T06:39:28;-0.10;99.90
22950;DHT22;11641;51.018;4.474;2022-12-16T06:42:13;-0.30;99.90
22950;DHT22;11641;51.018;4.474;2022-12-16T06:44:57;-0.30;99.90
22950;DHT22;11641;51.018;4.474;2022-12-16T06:47:42;-0.50;99.90
22950;DHT22;11641;51.018;4.474;2022-12-16T06:50:27;-0.60;99.90
22950;DHT22;11641;51.018;4.474;2022-12-16T06:53:11;-0.60;99.90
22950;DHT22;11641;51.018;4.474;2022-12-16T06:55:55;-0.70;99.90
22950;DHT22;11641;51.018;4.474;2022-12-16T06:58:39;-0.70;99.90
22950;DHT22;11641;51.018;4.474;2022-12-16T07:01:24;-0.70;99.90
22950;DHT22;11641;51.018;4.474;2022-12-16T07:04:10;-0.80;99.90
22950;DHT22;11641;51.018;4.474;2022-12-16T07:06:55;-0.80;99.90
22950;DHT22;11641;51.018;4.474;2022-12-16T07:09:38;-0.80;99.90
22950;DHT22;11641;51.018;4.474;2022-12-16T07:12:23;-0.70;99.90
22950;DHT22;11641;51.018;4.474;2022-12-16T07:15:07;-0.60;99.90
22950;DHT22;11641;51.018;4.474;2022-12-16T07:17:54;-0.40;99.90
22950;DHT22;11641;51.018;4.474;2022-12-16T07:20:38;-0.20;99.90
22950;DHT22;11641;51.018;4.474;2022-12-16T07:23:22;-0.10;99.90
22950;DHT22;11641;51.018;4.474;2022-12-16T07:26:06;0.10;99.90
22950;DHT22;11641;51.018;4.474;2022-12-16T07:28:50;0.20;99.90
22950;DHT22;11641;51.018;4.474;2022-12-16T07:31:34;0.30;99.90
22950;DHT22;11641;51.018;4.474;2022-12-16T07:34:18;0.40;99.90
22950;DHT22;11641;51.018;4.474;2022-12-16T07:37:03;0.50;99.90
22950;DHT22;11641;51.018;4.474;2022-12-16T07:39:50;0.60;99.90
22950;DHT22;11641;51.018;4.474;2022-12-16T07:42:34;0.60;99.90
22950;DHT22;11641;51.018;4.474;2022-12-16T07:45:21;0.70;99.90
22950;DHT22;11641;51.018;4.474;2022-12-16T07:48:06;0.80;99.90
22950;DHT22;11641;51.018;4.474;2022-12-16T07:50:50;0.90;99.90
22950;DHT22;11641;51.018;4.474;2022-12-16T07:53:34;1.00;99.90
22950;DHT22;11641;51.018;4.474;2022-12-16T07:56:19;1.20;99.90
22950;DHT22;11641;51.018;4.474;2022-12-16T07:59:03;1.30;99.90
22950;DHT22;11641;51.018;4.474;2022-12-16T08:01:47;1.50;99.90
22950;DHT22;11641;51.018;4.474;2022-12-16T08:04:34;1.70;99.90
22950;DHT22;11641;51.018;4.474;2022-12-16T08:07:18;1.70;99.90
22950;DHT22;11641;51.018;4.474;2022-12-16T08:10:07;1.90;99.90
22950;DHT22;11641;51.018;4.474;2022-12-16T08:12:58;1.90;99.90
22950;DHT22;11641;51.018;4.474;2022-12-16T08:15:43;2.00;99.90
22950;DHT22;11641;51.018;4.474;2022-12-16T08:18:27;2.10;99.90
22950;DHT22;11641;51.018;4.474;2022-12-16T08:21:15;2.10;99.90
22950;DHT22;11641;51.018;4.474;2022-12-16T08:24:01;2.30;99.90
22950;DHT22;11641;51.018;4.474;2022-12-16T08:26:46;2.30;99.90
22950;DHT22;11641;51.018;4.474;2022-12-16T08:29:30;2.40;99.90
22950;DHT22;11641;51.018;4.474;2022-12-16T08:32:14;2.40;99.90
22950;DHT22;11641;51.018;4.474;2022-12-16T08:34:59;2.40;99.90
22950;DHT22;11641;51.018;4.474;2022-12-16T08:37:45;2.50;99.90
22950;DHT22;11641;51.018;4.474;2022-12-16T08:40:46;2.50;99.90
22950;DHT22;11641;51.018;4.474;2022-12-16T08:43:32;2.60;99.90
22950;DHT22;11641;51.018;4.474;2022-12-16T08:46:17;2.80;99.90
22950;DHT22;11641;51.018;4.474;2022-12-16T08:49:02;2.80;99.90
22950;DHT22;11641;51.018;4.474;2022-12-16T08:51:46;3.00;99.90
22950;DHT22;11641;51.018;4.474;2022-12-16T08:54:30;3.00;99.90
22950;DHT22;11641;51.018;4.474;2022-12-16T08:57:15;3.10;99.90
22950;DHT22;11641;51.018;4.474;2022-12-16T08:59:59;3.20;99.90
22950;DHT22;11641;51.018;4.474;2022-12-16T09:02:45;3.20;99.90
22950;DHT22;11641;51.018;4.474;2022-12-16T09:05:30;3.20;99.90
22950;DHT22;11641;51.018;4.474;2022-12-16T09:08:14;3.20;99.90
22950;DHT22;11641;51.018;4.474;2022-12-16T09:11:03;3.20;99.90
22950;DHT22;11641;51.018;4.474;2022-12-16T09:13:48;3.30;99.90
22950;DHT22;11641;51.018;4.474;2022-12-16T09:16:32;3.30;99.90
22950;DHT22;11641;51.018;4.474;2022-12-16T09:19:18;3.40;99.90
22950;DHT22;11641;51.018;4.474;2022-12-16T09:22:02;3.40;99.90
22950;DHT22;11641;51.018;4.474;2022-12-16T09:24:46;3.40;99.90
22950;DHT22;11641;51.018;4.474;2022-12-16T09:27:33;3.40;99.90
22950;DHT22;11641;51.018;4.474;2022-12-16T09:30:17;3.60;99.90
22950;DHT22;11641;51.018;4.474;2022-12-16T09:33:02;3.60;99.90
22950;DHT22;11641;51.018;4.474;2022-12-16T09:35:46;3.80;99.90
22950;DHT22;11641;51.018;4.474;2022-12-16T09:38:32;3.90;99.90
22950;DHT22;11641;51.018;4.474;2022-12-16T09:41:41;4.10;99.90
22950;DHT22;11641;51.018;4.474;2022-12-16T09:44:54;4.20;99.90
22950;DHT22;11641;51.018;4.474;2022-12-16T09:48:04;4.30;99.90
22950;DHT22;11641;51.018;4.474;2022-12-16T09:50:52;4.10;99.90
22950;DHT22;11641;51.018;4.474;2022-12-16T09:53:38;4.10;99.90
22950;DHT22;11641;51.018;4.474;2022-12-16T09:56:31;4.10;99.90
22950;DHT22;11641;51.018;4.474;2022-12-16T09:59:23;4.30;99.90
22950;DHT22;11641;51.018;4.474;2022-12-16T10:02:12;4.30;99.90
22950;DHT22;11641;51.018;4.474;2022-12-16T10:04:58;4.50;99.90
22950;DHT22;11641;51.018;4.474;2022-12-16T10:07:51;4.60;99.90
22950;DHT22;11641;51.018;4.474;2022-12-16T10:14:25;4.20;99.90
22950;DHT22;11641;51.018;4.474;2022-12-16T10:17:24;3.90;99.90
22950;DHT22;11641;51.018;4.474;2022-12-16T10:23:04;4.60;99.90
22950;DHT22;11641;51.018;4.474;2022-12-16T10:26:01;4.90;99.90
22950;DHT22;11641;51.018;4.474;2022-12-16T10:28:52;5.00;99.90
22950;DHT22;11641;51.018;4.474;2022-12-16T10:31:38;5.30;99.90
22950;DHT22;11641;51.018;4.474;2022-12-16T10:34:29;5.40;99.90
22950;DHT22;11641;51.018;4.474;2022-12-16T10:37:19;5.40;99.90
22950;DHT22;11641;51.018;4.474;2022-12-16T10:40:05;5.30;99.90
22950;DHT22;11641;51.018;4.474;2022-12-16T10:43:01;5.30;99.90
22950;DHT22;11641;51.018;4.474;2022-12-16T10:45:51;5.40;99.90
22950;DHT22;11641;51.018;4.474;2022-12-16T10:48:36;5.40;99.90
22950;DHT22;11641;51.018;4.474;2022-12-16T10:51:21;5.70;99.90
22950;DHT22;11641;51.018;4.474;2022-12-16T10:57:22;6.30;99.90
22950;DHT22;11641;51.018;4.474;2022-12-16T11:03:28;7.00;99.90
22950;DHT22;11641;51.018;4.474;2022-12-16T11:09:31;7.50;99.90
22950;DHT22;11641;51.018;4.474;2022-12-16T11:12:25;8.00;99.90
22950;DHT22;11641;51.018;4.474;2022-12-16T11:15:31;8.20;99.90
22950;DHT22;11641;51.018;4.474;2022-12-16T11:18:15;8.90;99.90
22950;DHT22;11641;51.018;4.474;2022-12-16T11:24:14;9.00;99.90
22950;DHT22;11641;51.018;4.474;2022-12-16T11:27:01;8.70;99.90
22950;DHT22;11641;51.018;4.474;2022-12-16T11:29:54;8.40;99.90
22950;DHT22;11641;51.018;4.474;2022-12-16T11:32:49;8.00;99.90
22950;DHT22;11641;51.018;4.474;2022-12-16T11:35:38;7.90;99.90
22950;DHT22;11641;51.018;4.474;2022-12-16T11:38:27;8.20;99.90
22950;DHT22;11641;51.018;4.474;2022-12-16T11:41:31;9.10;99.90
22950;DHT22;11641;51.018;4.474;2022-12-16T11:44:20;10.20;99.90
22950;DHT22;11641;51.018;4.474;2022-12-16T11:47:19;10.70;99.90
22950;DHT22;11641;51.018;4.474;2022-12-16T11:50:10;10.50;99.90
22950;DHT22;11641;51.018;4.474;2022-12-16T11:52:56;9.60;99.90
22950;DHT22;11641;51.018;4.474;2022-12-16T11:55:44;8.70;99.90
22950;DHT22;11641;51.018;4.474;2022-12-16T11:58:39;8.00;99.90
22950;DHT22;11641;51.018;4.474;2022-12-16T12:01:42;7.90;99.90
22950;DHT22;11641;51.018;4.474;2022-12-16T12:04:28;8.20;99.90
22950;DHT22;11641;51.018;4.474;2022-12-16T12:07:28;9.00;99.90
22950;DHT22;11641;51.018;4.474;2022-12-16T12:13:38;9.70;99.90
22950;DHT22;11641;51.018;4.474;2022-12-16T12:19:37;9.80;99.90
22950;DHT22;11641;51.018;4.474;2022-12-16T12:22:34;10.70;99.90
22950;DHT22;11641;51.018;4.474;2022-12-16T12:25:24;13.20;99.90
22950;DHT22;11641;51.018;4.474;2022-12-16T12:35:27;18.80;90.70
22950;DHT22;11641;51.018;4.474;2022-12-16T12:38:22;20.40;85.70
22950;DHT22;11641;51.018;4.474;2022-12-16T12:41:27;21.60;77.50
22950;DHT22;11641;51.018;4.474;2022-12-16T12:44:35;22.00;73.10
22950;DHT22;11641;51.018;4.474;2022-12-16T12:47:27;22.50;69.70
22950;DHT22;11641;51.018;4.474;2022-12-16T12:50:28;23.30;66.50
22950;DHT22;11641;51.018;4.474;2022-12-16T12:56:52;23.60;60.80
22950;DHT22;11641;51.018;4.474;2022-12-16T12:59:54;24.30;59.30
22950;DHT22;11641;51.018;4.474;2022-12-16T13:02:52;24.80;57.60
22950;DHT22;11641;51.018;4.474;2022-12-16T13:05:41;24.30;56.40
22950;DHT22;11641;51.018;4.474;2022-12-16T13:11:22;23.20;56.60
22950;DHT22;11641;51.018;4.474;2022-12-16T13:17:20;23.80;56.60
22950;DHT22;11641;51.018;4.474;2022-12-16T13:26:16;19.60;61.70
22950;DHT22;11641;51.018;4.474;2022-12-16T13:29:20;19.10;66.10
22950;DHT22;11641;51.018;4.474;2022-12-16T13:34:59;17.40;70.40
22950;DHT22;11641;51.018;4.474;2022-12-16T13:37:52;16.00;74.80
22950;DHT22;11641;51.018;4.474;2022-12-16T13:46:47;12.10;93.10
22950;DHT22;11641;51.018;4.474;2022-12-16T14:01:22;8.20;99.90
22950;DHT22;11641;51.018;4.474;2022-12-16T14:04:15;7.50;99.90
22950;DHT22;11641;51.018;4.474;2022-12-16T14:07:03;7.10;99.90
22950;DHT22;11641;51.018;4.474;2022-12-16T14:09:48;6.90;99.90
22950;DHT22;11641;51.018;4.474;2022-12-16T14:16:03;6.60;99.90
22950;DHT22;11641;51.018;4.474;2022-12-16T14:25:23;6.50;99.90
22950;DHT22;11641;51.018;4.474;2022-12-16T14:31:37;6.20;99.90
22950;DHT22;11641;51.018;4.474;2022-12-16T14:34:31;6.00;99.90
22950;DHT22;11641;51.018;4.474;2022-12-16T14:40:17;5.80;99.90
22950;DHT22;11641;51.018;4.474;2022-12-16T14:43:01;5.50;99.90
22950;DHT22;11641;51.018;4.474;2022-12-16T14:45:49;5.40;99.90
22950;DHT22;11641;51.018;4.474;2022-12-16T14:48:37;5.30;99.90
22950;DHT22;11641;51.018;4.474;2022-12-16T14:51:26;5.30;99.90
22950;DHT22;11641;51.018;4.474;2022-12-16T14:54:41;5.30;99.90
22950;DHT22;11641;51.018;4.474;2022-12-16T14:57:28;5.10;99.90
22950;DHT22;11641;51.018;4.474;2022-12-16T15:00:24;4.80;99.90
22950;DHT22;11641;51.018;4.474;2022-12-16T15:06:06;4.30;99.90
22950;DHT22;11641;51.018;4.474;2022-12-16T15:09:02;4.00;99.90
22950;DHT22;11641;51.018;4.474;2022-12-16T15:11:49;3.80;99.90
22950;DHT22;11641;51.018;4.474;2022-12-16T15:14:38;3.60;99.90
22950;DHT22;11641;51.018;4.474;2022-12-16T15:17:26;3.40;99.90
22950;DHT22;11641;51.018;4.474;2022-12-16T15:20:31;3.30;99.90
22950;DHT22;11641;51.018;4.474;2022-12-16T15:26:06;2.80;99.90
22950;DHT22;11641;51.018;4.474;2022-12-16T15:28:51;2.60;99.90
22950;DHT22;11641;51.018;4.474;2022-12-16T15:31:39;2.50;99.90
22950;DHT22;11641;51.018;4.474;2022-12-16T15:40:13;2.00;99.90
22950;DHT22;11641;51.018;4.474;2022-12-16T15:43:01;1.90;99.90
22950;DHT22;11641;51.018;4.474;2022-12-16T15:45:48;1.70;99.90
22950;DHT22;11641;51.018;4.474;2022-12-16T15:48:34;1.70;99.90
22950;DHT22;11641;51.018;4.474;2022-12-16T15:54:19;1.40;99.90
22950;DHT22;11641;51.018;4.474;2022-12-16T15:57:32;1.30;99.90
22950;DHT22;11641;51.018;4.474;2022-12-16T16:03:28;1.10;99.90
22950;DHT22;11641;51.018;4.474;2022-12-16T16:06:25;1.00;99.90
22950;DHT22;11641;51.018;4.474;2022-12-16T16:09:20;1.00;99.90
22950;DHT22;11641;51.018;4.474;2022-12-16T16:12:04;0.90;99.90
22950;DHT22;11641;51.018;4.474;2022-12-16T16:14:48;0.80;99.90
22950;DHT22;11641;51.018;4.474;2022-12-16T16:17:32;0.80;99.90
22950;DHT22;11641;51.018;4.474;2022-12-16T16:20:18;0.70;99.90
22950;DHT22;11641;51.018;4.474;2022-12-16T16:23:03;0.60;99.90
22950;DHT22;11641;51.018;4.474;2022-12-16T16:25:47;0.60;99.90
22950;DHT22;11641;51.018;4.474;2022-12-16T16:28:32;0.50;99.90
22950;DHT22;11641;51.018;4.474;2022-12-16T16:31:19;0.40;99.90
22950;DHT22;11641;51.018;4.474;2022-12-16T16:34:04;0.40;99.90
22950;DHT22;11641;51.018;4.474;2022-12-16T16:36:52;0.40;99.90
22950;DHT22;11641;51.018;4.474;2022-12-16T16:39:36;0.40;99.90
22950;DHT22;11641;51.018;4.474;2022-12-16T16:42:31;0.30;99.90
22950;DHT22;11641;51.018;4.474;2022-12-16T16:45:16;0.20;99.90
22950;DHT22;11641;51.018;4.474;2022-12-16T16:48:14;0.20;99.90
22950;DHT22;11641;51.018;4.474;2022-12-16T16:51:00;0.20;99.90
22950;DHT22;11641;51.018;4.474;2022-12-16T16:53:44;0.10;99.90
22950;DHT22;11641;51.018;4.474;2022-12-16T16:56:32;0.10;99.90
22950;DHT22;11641;51.018;4.474;2022-12-16T16:59:16;0.10;99.90
22950;DHT22;11641;51.018;4.474;2022-12-16T17:02:00;0.10;99.90
22950;DHT22;11641;51.018;4.474;2022-12-16T17:04:45;0.00;99.90
22950;DHT22;11641;51.018;4.474;2022-12-16T17:07:29;-0.10;99.90
22950;DHT22;11641;51.018;4.474;2022-12-16T17:10:13;-0.10;99.90
22950;DHT22;11641;51.018;4.474;2022-12-16T17:12:57;-0.10;99.90
22950;DHT22;11641;51.018;4.474;2022-12-16T17:15:44;-0.10;99.90
22950;DHT22;11641;51.018;4.474;2022-12-16T17:18:28;-0.20;99.90
22950;DHT22;11641;51.018;4.474;2022-12-16T17:21:12;-0.20;99.90
22950;DHT22;11641;51.018;4.474;2022-12-16T17:23:56;-0.20;99.90
22950;DHT22;11641;51.018;4.474;2022-12-16T17:27:27;-0.30;99.90
22950;DHT22;11641;51.018;4.474;2022-12-16T17:30:19;-0.30;99.90
22950;DHT22;11641;51.018;4.474;2022-12-16T17:33:03;-0.30;99.90
22950;DHT22;11641;51.018;4.474;2022-12-16T17:35:53;-0.30;99.90
22950;DHT22;11641;51.018;4.474;2022-12-16T17:38:41;-0.30;99.90
22950;DHT22;11641;51.018;4.474;2022-12-16T17:41:31;-0.30;99.90
22950;DHT22;11641;51.018;4.474;2022-12-16T17:44:19;-0.30;99.90
22950;DHT22;11641;51.018;4.474;2022-12-16T17:47:03;-0.30;99.90
22950;DHT22;11641;51.018;4.474;2022-12-16T17:49:47;-0.40;99.90
22950;DHT22;11641;51.018;4.474;2022-12-16T17:52:32;-0.40;99.90
22950;DHT22;11641;51.018;4.474;2022-12-16T17:55:18;-0.40;99.90
22950;DHT22;11641;51.018;4.474;2022-12-16T17:58:05;-0.50;99.90
22950;DHT22;11641;51.018;4.474;2022-12-16T18:00:49;-0.50;99.90
22950;DHT22;11641;51.018;4.474;2022-12-16T18:03:33;-0.60;99.90
22950;DHT22;11641;51.018;4.474;2022-12-16T18:06:17;-0.50;99.90
22950;DHT22;11641;51.018;4.474;2022-12-16T18:09:02;-0.60;99.90
22950;DHT22;11641;51.018;4.474;2022-12-16T18:11:46;-0.60;99.90
22950;DHT22;11641;51.018;4.474;2022-12-16T18:14:30;-0.60;99.90
22950;DHT22;11641;51.018;4.474;2022-12-16T18:17:14;-0.60;99.90
22950;DHT22;11641;51.018;4.474;2022-12-16T18:19:58;-0.60;99.90
22950;DHT22;11641;51.018;4.474;2022-12-16T18:22:42;-0.60;99.90
22950;DHT22;11641;51.018;4.474;2022-12-16T18:25:27;-0.60;99.90
22950;DHT22;11641;51.018;4.474;2022-12-16T18:28:14;-0.70;99.90
22950;DHT22;11641;51.018;4.474;2022-12-16T18:31:03;-0.70;99.90
22950;DHT22;11641;51.018;4.474;2022-12-16T18:33:47;-0.70;99.90
22950;DHT22;11641;51.018;4.474;2022-12-16T18:36:31;-0.70;99.90
22950;DHT22;11641;51.018;4.474;2022-12-16T18:39:16;-0.70;99.90
22950;DHT22;11641;51.018;4.474;2022-12-16T18:41:59;-0.80;99.90
22950;DHT22;11641;51.018;4.474;2022-12-16T18:44:44;-0.80;99.90
22950;DHT22;11641;51.018;4.474;2022-12-16T18:47:28;-0.90;99.90
22950;DHT22;11641;51.018;4.474;2022-12-16T18:50:12;-0.90;99.90
22950;DHT22;11641;51.018;4.474;2022-12-16T18:52:56;-0.90;99.90
22950;DHT22;11641;51.018;4.474;2022-12-16T18:55:40;-0.90;99.90
22950;DHT22;11641;51.018;4.474;2022-12-16T18:58:24;-1.00;99.90
22950;DHT22;11641;51.018;4.474;2022-12-16T19:01:09;-1.10;99.90
22950;DHT22;11641;51.018;4.474;2022-12-16T19:03:55;-1.10;99.90
22950;DHT22;11641;51.018;4.474;2022-12-16T19:06:39;-1.10;99.90
22950;DHT22;11641;51.018;4.474;2022-12-16T19:09:23;-1.10;99.90
22950;DHT22;11641;51.018;4.474;2022-12-16T19:12:10;-1.00;99.90
22950;DHT22;11641;51.018;4.474;2022-12-16T19:14:54;-1.10;99.90
22950;DHT22;11641;51.018;4.474;2022-12-16T19:17:38;-1.10;99.90
22950;DHT22;11641;51.018;4.474;2022-12-16T19:20:23;-1.10;99.90
22950;DHT22;11641;51.018;4.474;2022-12-16T19:23:07;-1.10;99.90
22950;DHT22;11641;51.018;4.474;2022-12-16T19:25:59;-1.10;99.90
22950;DHT22;11641;51.018;4.474;2022-12-16T19:28:43;-1.20;99.90
22950;DHT22;11641;51.018;4.474;2022-12-16T19:31:28;-1.30;99.90
22950;DHT22;11641;51.018;4.474;2022-12-16T19:34:12;-1.30;99.90
22950;DHT22;11641;51.018;4.474;2022-12-16T19:36:56;-1.30;99.90
22950;DHT22;11641;51.018;4.474;2022-12-16T19:39:43;-1.30;99.90
22950;DHT22;11641;51.018;4.474;2022-12-16T19:42:32;-1.30;99.90
22950;DHT22;11641;51.018;4.474;2022-12-16T19:45:19;-1.30;99.90
22950;DHT22;11641;51.018;4.474;2022-12-16T19:48:06;-1.40;99.90
22950;DHT22;11641;51.018;4.474;2022-12-16T19:51:00;-1.30;99.90